Historique des mesures à Cassis (13260), France
Quotidien Résumé Janvier 13, 2019 Unités:  Métrique/US    US   Métrique
« Précédent (Jour)
Suivant (Jour) »
Quotidien Hebdomadaire Mensuel Annuel Période au choix
  Maximum: Minimum: Moyenne:
Température: 32 °F /  TemperatureC °C 47.3 °F /  8.5 °C 50.9 °F /  10.5 °C
Point de rosée: 32 °F /  DewpointC °C 31.8 °F /  -0.1 °C 38.7 °F /  3.7 °C
Humidité: Humidity % 55 % 60 %
Vitesse du vent: WindSpeedKMH mph /  0 km/h - 21.8 mph /  35.1 km/h
Rafales: WindSpeedGustKMH mph /  0 km/h - -
Vent:- - West
Pression: 0 in /  PressurehPa hPa 29.8 in /  1008.1 hPa -
Précipitations: 0 in /  0.0 mm    
Historical Graphs
 
 
Mesures pour : Janvier 13, 2019
Heure Temperature Point de rosée Pression Vent Vitesse du vent Rafales Humidité Pluie (par heure) Conditions
32 °F /  TemperatureC °C 32 °F /  DewpointC °C 0 in /  PressurehPa hPa Calm     Humidity % 0 in /  HourlyPrecipMM mm SoftwareType W/m2
00:10 47.3 °F /  8.5 °C 31.8 °F /  -0.1 °C 30 in /  1014.6 hPa NNE 7.2 mph /  11.6 km/h 7.2 mph /  11.6 km/h 55 % 0 in /  0.0 mm open2300-1.11 W/m2
01:10 47.8 °F /  8.8 °C 33.8 °F /  1.0 °C 29.9 in /  1013.2 hPa North 19.1 mph /  30.7 km/h 38.5 mph /  62 km/h 58 % 0 in /  0.0 mm open2300-1.11 W/m2
02:10 47.7 °F /  8.7 °C 34.9 °F /  1.6 °C 29.9 in /  1012.5 hPa NE 31.4 mph /  50.5 km/h 60.8 mph /  97.8 km/h 61 % 0 in /  0.0 mm open2300-1.11 W/m2
03:10 47.8 °F /  8.8 °C 35.4 °F /  1.9 °C 29.9 in /  1012.5 hPa NNW 23.3 mph /  37.5 km/h 27.0 mph /  43.5 km/h 62 % 0 in /  0.0 mm open2300-1.11 W/m2
04:10 47.5 °F /  8.6 °C 36 °F /  2.2 °C 29.9 in /  1012.6 hPa NNW 29.1 mph /  46.8 km/h 29.1 mph /  46.8 km/h 64 % 0 in /  0.0 mm open2300-1.11 W/m2
05:10 47.7 °F /  8.7 °C 36.3 °F /  2.4 °C 29.9 in /  1011.6 hPa WNW 15.1 mph /  24.3 km/h 44.2 mph /  71.1 km/h 65 % 0 in /  0.0 mm open2300-1.11 W/m2
06:10 48.7 °F /  9.3 °C 37 °F /  2.8 °C 29.9 in /  1010.9 hPa NNW 22.7 mph /  36.5 km/h 57.3 mph /  92.2 km/h 64 % 0 in /  0.0 mm open2300-1.11 W/m2
07:10 49.1 °F /  9.5 °C 37.4 °F /  3.0 °C 29.9 in /  1011.9 hPa WNW 22.0 mph /  35.4 km/h 25.6 mph /  41.2 km/h 64 % 0 in /  0.0 mm open2300-1.11 W/m2
08:10 50.4 °F /  10.2 °C 37.4 °F /  3.0 °C 29.9 in /  1012.4 hPa WNW 23.0 mph /  37 km/h 26.2 mph /  42.2 km/h 61 % 0 in /  0.0 mm open2300-1.11 W/m2
09:10 50.7 °F /  10.4 °C 37.8 °F /  3.2 °C 29.9 in /  1012.9 hPa WNW 15.1 mph /  24.3 km/h 22.0 mph /  35.4 km/h 61 % 0 in /  0.0 mm open2300-1.11 W/m2
10:10 51.6 °F /  10.9 °C 38.5 °F /  3.6 °C 29.9 in /  1013.2 hPa West 23.3 mph /  37.5 km/h 25.6 mph /  41.2 km/h 61 % 0 in /  0.0 mm open2300-1.11 W/m2
11:10 51.6 °F /  10.9 °C 39 °F /  3.9 °C 29.9 in /  1013.1 hPa NNW 23.3 mph /  37.5 km/h 31.7 mph /  51 km/h 62 % 0 in /  0.0 mm open2300-1.11 W/m2
12:10 51.8 °F /  11.0 °C 39 °F /  3.9 °C 29.9 in /  1012.1 hPa WNW 26.7 mph /  43 km/h 26.7 mph /  43 km/h 62 % 0 in /  0.0 mm open2300-1.11 W/m2
13:10 53.1 °F /  11.7 °C 39.9 °F /  4.4 °C 29.9 in /  1011.5 hPa NW 10.1 mph /  16.3 km/h 44.6 mph /  71.8 km/h 61 % 0 in /  0.0 mm open2300-1.11 W/m2
14:10 54 °F /  12.2 °C 40.8 °F /  4.9 °C 29.8 in /  1010.6 hPa WNW 25.9 mph /  41.7 km/h 29.9 mph /  48.1 km/h 61 % 0 in /  0.0 mm open2300-1.11 W/m2
15:10 54.3 °F /  12.4 °C 41.2 °F /  5.1 °C 29.8 in /  1009.7 hPa NNW 35.2 mph /  56.6 km/h 39.9 mph /  64.2 km/h 61 % 0 in /  0.0 mm open2300-1.11 W/m2
16:10 54.5 °F /  12.5 °C 41.4 °F /  5.2 °C 29.8 in /  1008.3 hPa West 46.5 mph /  74.8 km/h 46.5 mph /  74.8 km/h 61 % 0 in /  0.0 mm open2300-1.11 W/m2
17:10 55.4 °F /  13.0 °C 42.1 °F /  5.6 °C 29.8 in /  1008.9 hPa West 31.7 mph /  51 km/h 35.2 mph /  56.6 km/h 61 % 0 in /  0.0 mm open2300-1.11 W/m2
18:10 55.8 °F /  13.2 °C 42.4 °F /  5.8 °C 29.8 in /  1009.1 hPa NNW 25.6 mph /  41.2 km/h 32.3 mph /  52 km/h 61 % 0 in /  0.0 mm open2300-1.11 W/m2
19:10 55 °F /  12.8 °C 42.6 °F /  5.9 °C 29.8 in /  1009.3 hPa WNW 14.3 mph /  23 km/h 28.8 mph /  46.3 km/h 63 % 0 in /  0.0 mm open2300-1.11 W/m2
20:10 53.8 °F /  12.1 °C 42.3 °F /  5.7 °C 29.8 in /  1010.3 hPa NW 21.6 mph /  34.8 km/h 21.6 mph /  34.8 km/h 65 % 0 in /  0.0 mm open2300-1.11 W/m2
21:10 54.1 °F /  12.3 °C 42.6 °F /  5.9 °C 29.8 in /  1009.7 hPa WNW 4.3 mph /  6.9 km/h 23.3 mph /  37.5 km/h 65 % 0 in /  0.0 mm open2300-1.11 W/m2
22:10 55 °F /  12.8 °C 43 °F /  6.1 °C 29.8 in /  1008.3 hPa WNW 15.4 mph /  24.8 km/h 26.7 mph /  43 km/h 64 % 0 in /  0.0 mm open2300-1.11 W/m2
23:10 54.3 °F /  12.4 °C 42.8 °F /  6.0 °C 29.8 in /  1008.1 hPa NNW 34.1 mph /  54.9 km/h 34.1 mph /  54.9 km/h 65 % 0 in /  0.0 mm open2300-1.11 W/m2
Observations météo à CASSIS
WU-History script by Weather Underground - 1 mb